createdAt,value
2023-09-28T00:00:19.257Z,16.70
2023-09-28T00:01:41.837Z,16.70
2023-09-28T00:03:05.572Z,16.70
2023-09-28T00:04:28.976Z,16.70
2023-09-28T00:05:51.977Z,16.70
2023-09-28T00:07:14.082Z,16.70
2023-09-28T00:08:36.188Z,16.70
2023-09-28T00:09:58.371Z,16.70
2023-09-28T00:11:20.505Z,16.60
2023-09-28T00:12:46.296Z,16.60
2023-09-28T00:14:08.534Z,16.60
2023-09-28T00:15:30.825Z,16.60
2023-09-28T00:16:53.623Z,16.60
2023-09-28T00:18:15.795Z,16.60
2023-09-28T00:19:38.723Z,16.60
2023-09-28T00:21:02.296Z,16.60
2023-09-28T00:22:24.443Z,16.60
2023-09-28T00:23:46.589Z,16.50
2023-09-28T00:25:12.545Z,16.50
2023-09-28T00:26:34.738Z,16.50
2023-09-28T00:27:57.249Z,16.50
2023-09-28T00:29:19.743Z,16.50
2023-09-28T00:30:43.569Z,16.50
2023-09-28T00:32:05.725Z,16.40
2023-09-28T00:33:27.831Z,16.40
2023-09-28T00:34:49.963Z,16.40
2023-09-28T00:36:12.076Z,16.40
2023-09-28T00:37:34.246Z,16.40
2023-09-28T00:38:56.651Z,16.40
2023-09-28T00:40:28.990Z,16.40
2023-09-28T00:41:51.079Z,16.40
2023-09-28T00:43:13.329Z,16.40
2023-09-28T00:44:35.455Z,16.40
2023-09-28T00:45:57.736Z,16.40
2023-09-28T00:47:19.983Z,16.40
2023-09-28T00:48:58.567Z,16.40
2023-09-28T00:50:22.097Z,16.40
2023-09-28T00:51:48.440Z,16.30
2023-09-28T00:53:11.565Z,16.30
2023-09-28T00:54:34.403Z,16.30
2023-09-28T00:55:57.558Z,16.30
2023-09-28T00:57:19.985Z,16.30
2023-09-28T00:58:42.154Z,16.30
2023-09-28T01:00:19.597Z,16.30
2023-09-28T01:01:41.885Z,16.30
2023-09-28T01:03:09.758Z,16.30
2023-09-28T01:04:32.042Z,16.30
2023-09-28T01:05:54.292Z,16.30
2023-09-28T01:07:31.145Z,16.30
2023-09-28T01:08:55.566Z,16.30
2023-09-28T01:10:24.436Z,16.30
2023-09-28T01:11:47.022Z,16.30
2023-09-28T01:13:22.654Z,16.30
2023-09-28T01:14:46.359Z,16.30
2023-09-28T01:16:08.583Z,16.30
2023-09-28T01:17:33.314Z,16.40
2023-09-28T01:18:56.028Z,16.40
2023-09-28T01:20:31.307Z,16.40
2023-09-28T01:21:53.528Z,16.40
2023-09-28T01:23:16.321Z,16.40
2023-09-28T01:24:39.559Z,16.50
2023-09-28T01:26:02.981Z,16.40
2023-09-28T01:27:25.790Z,16.50
2023-09-28T01:28:47.906Z,16.50
2023-09-28T01:30:12.896Z,16.50
2023-09-28T01:31:35.126Z,16.50
2023-09-28T01:32:57.332Z,16.50
2023-09-28T01:34:20.457Z,16.50
2023-09-28T01:35:42.779Z,16.50
2023-09-28T01:37:05.747Z,16.50
2023-09-28T01:38:39.877Z,16.40
2023-09-28T01:40:02.488Z,16.40
2023-09-28T01:41:24.684Z,16.40
2023-09-28T01:42:46.799Z,16.40
2023-09-28T01:44:08.942Z,16.40
2023-09-28T01:45:31.238Z,16.40
2023-09-28T01:46:53.410Z,16.40
2023-09-28T01:48:16.506Z,16.40
2023-09-28T01:49:38.937Z,16.40
2023-09-28T01:51:03.244Z,16.40
2023-09-28T01:52:25.342Z,16.40
2023-09-28T01:53:47.588Z,16.40
2023-09-28T01:55:10.485Z,16.40
2023-09-28T01:56:32.694Z,16.40
2023-09-28T01:57:54.860Z,16.40
2023-09-28T01:59:17.050Z,16.40
2023-09-28T02:00:39.288Z,16.40
2023-09-28T02:02:02.483Z,16.40
2023-09-28T02:03:24.822Z,16.40
2023-09-28T02:04:47.498Z,16.40
2023-09-28T02:06:10.915Z,16.30
2023-09-28T02:07:35.422Z,16.30
2023-09-28T02:08:57.485Z,16.30
2023-09-28T02:10:20.066Z,16.30
2023-09-28T02:11:44.820Z,16.30
2023-09-28T02:13:06.940Z,16.30
2023-09-28T02:14:29.065Z,16.30
2023-09-28T02:15:51.124Z,16.30
2023-09-28T02:17:13.228Z,16.30
2023-09-28T02:18:35.356Z,16.30
2023-09-28T02:19:57.862Z,16.30
2023-09-28T02:21:20.169Z,16.30
2023-09-28T02:22:46.708Z,16.30
2023-09-28T02:24:09.683Z,16.20
2023-09-28T02:25:31.810Z,16.20
2023-09-28T02:26:54.974Z,16.20
2023-09-28T02:28:17.432Z,16.20
2023-09-28T02:29:39.816Z,16.10
2023-09-28T02:31:08.383Z,16.10
2023-09-28T02:32:30.615Z,16.10
2023-09-28T02:33:53.105Z,16.10
2023-09-28T02:35:17.426Z,16.10
2023-09-28T02:36:39.580Z,16.10
2023-09-28T02:38:01.703Z,16.10
2023-09-28T02:39:23.810Z,16.10
2023-09-28T02:40:45.991Z,16.00
2023-09-28T02:42:08.877Z,16.00
2023-09-28T02:43:31.120Z,16.00
2023-09-28T02:44:53.244Z,16.00
2023-09-28T02:46:15.370Z,16.00
2023-09-28T02:47:37.577Z,16.00
2023-09-28T02:49:00.008Z,16.00
2023-09-28T02:50:23.541Z,15.90
2023-09-28T02:51:46.270Z,15.90
2023-09-28T02:53:08.616Z,15.90
2023-09-28T02:54:31.608Z,15.90
2023-09-28T02:55:53.762Z,15.90
2023-09-28T02:57:15.922Z,15.90
2023-09-28T02:58:37.979Z,15.90
2023-09-28T03:00:00.218Z,15.90
2023-09-28T03:01:22.558Z,15.90
2023-09-28T03:02:44.732Z,15.90
2023-09-28T03:04:06.936Z,15.90
2023-09-28T03:05:29.501Z,15.90
2023-09-28T03:06:53.407Z,15.90
2023-09-28T03:08:15.851Z,15.90
2023-09-28T03:09:38.392Z,15.90
2023-09-28T03:11:00.526Z,15.90
2023-09-28T03:12:22.741Z,15.80
2023-09-28T03:13:44.874Z,15.80
2023-09-28T03:15:11.876Z,15.80
2023-09-28T03:16:34.793Z,15.80
2023-09-28T03:17:57.556Z,15.80
2023-09-28T03:19:19.737Z,15.80
2023-09-28T03:20:46.133Z,15.80
2023-09-28T03:22:08.269Z,15.80
2023-09-28T03:23:30.368Z,15.80
2023-09-28T03:24:52.618Z,15.80
2023-09-28T03:26:14.773Z,15.80
2023-09-28T03:27:37.966Z,15.80
2023-09-28T03:29:00.074Z,15.80
2023-09-28T03:30:25.040Z,15.70
2023-09-28T03:31:47.562Z,15.80
2023-09-28T03:33:09.809Z,15.70
2023-09-28T03:34:31.881Z,15.70
2023-09-28T03:35:53.974Z,15.70
2023-09-28T03:37:19.844Z,15.70
2023-09-28T03:38:42.006Z,15.70
2023-09-28T03:40:12.177Z,15.70
2023-09-28T03:41:36.810Z,15.70
2023-09-28T03:42:59.149Z,15.70
2023-09-28T03:44:22.236Z,15.70
2023-09-28T03:45:44.742Z,15.70
2023-09-28T03:47:07.071Z,15.70
2023-09-28T03:48:29.130Z,15.70
2023-09-28T03:49:51.244Z,15.70
2023-09-28T03:51:15.174Z,15.70
2023-09-28T03:52:40.918Z,15.70
2023-09-28T03:54:03.055Z,15.70
2023-09-28T03:55:25.224Z,15.60
2023-09-28T03:56:47.900Z,15.70
2023-09-28T03:58:10.004Z,15.60
2023-09-28T03:59:32.455Z,15.60
2023-09-28T04:00:54.602Z,15.60
2023-09-28T04:02:17.138Z,15.60
2023-09-28T04:03:39.317Z,15.60
2023-09-28T04:05:01.567Z,15.60
2023-09-28T04:06:23.798Z,15.60
2023-09-28T04:07:46.108Z,15.60
2023-09-28T04:09:08.871Z,15.60
2023-09-28T04:10:37.875Z,15.60
2023-09-28T04:12:00.797Z,15.60
2023-09-28T04:13:23.056Z,15.60
2023-09-28T04:14:45.167Z,15.60
2023-09-28T04:16:07.317Z,15.60
2023-09-28T04:17:29.604Z,15.60
2023-09-28T04:18:51.845Z,15.60
2023-09-28T04:20:14.406Z,15.60
2023-09-28T04:21:36.870Z,15.60
2023-09-28T04:22:59.258Z,15.60
2023-09-28T04:24:21.460Z,15.60
2023-09-28T04:25:43.664Z,15.60
2023-09-28T04:27:05.874Z,15.60
2023-09-28T04:28:28.066Z,15.60
2023-09-28T04:29:50.306Z,15.50
2023-09-28T04:31:12.402Z,15.50
2023-09-28T04:32:34.635Z,15.50
2023-09-28T04:33:58.453Z,15.50
2023-09-28T04:35:21.844Z,15.50
2023-09-28T04:36:45.992Z,15.50
2023-09-28T04:38:08.631Z,15.50
2023-09-28T04:39:31.112Z,15.50
2023-09-28T04:40:53.265Z,15.50
2023-09-28T04:42:16.527Z,15.50
2023-09-28T04:43:38.714Z,15.50
2023-09-28T04:45:01.098Z,15.50
2023-09-28T04:46:23.225Z,15.50
2023-09-28T04:47:45.361Z,15.50
2023-09-28T04:49:07.434Z,15.50
2023-09-28T04:50:29.823Z,15.40
2023-09-28T04:51:53.029Z,15.40
2023-09-28T04:53:15.209Z,15.40
2023-09-28T04:54:37.559Z,15.40
2023-09-28T04:56:00.153Z,15.40
2023-09-28T04:57:22.297Z,15.40
2023-09-28T04:58:44.788Z,15.40
2023-09-28T05:00:10.242Z,15.40
2023-09-28T05:01:32.478Z,15.30
2023-09-28T05:02:54.862Z,15.40
2023-09-28T05:04:17.324Z,15.40
2023-09-28T05:05:39.422Z,15.40
2023-09-28T05:07:01.610Z,15.40
2023-09-28T05:08:24.739Z,15.40
2023-09-28T05:09:46.894Z,15.40
2023-09-28T05:11:10.200Z,15.40
2023-09-28T05:12:32.519Z,15.40
2023-09-28T05:13:54.940Z,15.40
2023-09-28T05:15:17.417Z,15.40
2023-09-28T05:16:39.529Z,15.50
2023-09-28T05:18:01.918Z,15.50
2023-09-28T05:19:24.151Z,15.50
2023-09-28T05:20:46.228Z,15.50
2023-09-28T05:22:10.456Z,15.60
2023-09-28T05:23:32.557Z,15.60
2023-09-28T05:24:55.104Z,15.70
2023-09-28T05:26:18.007Z,15.70
2023-09-28T05:27:40.122Z,15.70
2023-09-28T05:29:02.235Z,15.80
2023-09-28T05:30:24.379Z,15.80
2023-09-28T05:31:48.070Z,15.90
2023-09-28T05:33:10.482Z,15.90
2023-09-28T05:34:32.949Z,15.90
2023-09-28T05:35:55.195Z,16.00
2023-09-28T05:37:17.405Z,16.00
2023-09-28T05:38:39.488Z,16.10
2023-09-28T05:40:02.036Z,16.10
2023-09-28T05:41:24.163Z,16.20
2023-09-28T05:42:46.274Z,16.20
2023-09-28T05:44:10.501Z,16.20
2023-09-28T05:45:34.225Z,16.30
2023-09-28T05:46:56.383Z,16.30
2023-09-28T05:48:18.678Z,16.30
2023-09-28T05:49:40.922Z,16.40
2023-09-28T05:51:03.020Z,16.40
2023-09-28T05:52:25.143Z,16.50
2023-09-28T05:53:50.994Z,16.50
2023-09-28T05:55:13.121Z,16.60
2023-09-28T05:56:35.205Z,16.60
2023-09-28T05:57:57.251Z,16.70
2023-09-28T05:59:19.509Z,16.70
2023-09-28T06:00:41.882Z,16.80
2023-09-28T06:02:03.971Z,16.90
2023-09-28T06:03:26.106Z,16.90
2023-09-28T06:04:49.047Z,17.00
2023-09-28T06:06:16.282Z,17.10
2023-09-28T06:07:38.752Z,17.10
2023-09-28T06:09:00.818Z,17.20
2023-09-28T06:10:22.963Z,17.30
2023-09-28T06:11:47.023Z,17.30
2023-09-28T06:13:09.132Z,17.40
2023-09-28T06:14:31.296Z,17.40
2023-09-28T06:15:53.460Z,17.40
2023-09-28T06:17:16.160Z,17.50
2023-09-28T06:18:38.626Z,17.50
2023-09-28T06:20:00.722Z,17.60
2023-09-28T06:21:24.091Z,17.70
2023-09-28T06:22:46.162Z,17.70
2023-09-28T06:24:08.580Z,17.80
2023-09-28T06:25:31.310Z,17.80
2023-09-28T06:26:54.559Z,17.90
2023-09-28T06:28:16.671Z,17.90
2023-09-28T06:29:38.743Z,18.00
2023-09-28T06:31:02.787Z,18.00
2023-09-28T06:32:26.104Z,18.10
2023-09-28T06:33:48.290Z,18.10
2023-09-28T06:35:10.744Z,18.10
2023-09-28T06:38:01.920Z,18.10
2023-09-28T06:39:24.014Z,18.10
2023-09-28T06:40:48.395Z,18.10
2023-09-28T06:42:23.170Z,18.10
2023-09-28T06:43:52.761Z,18.10
2023-09-28T06:45:15.716Z,18.10
2023-09-28T06:46:38.387Z,18.10
2023-09-28T06:49:27.397Z,18.10
2023-09-28T06:50:51.350Z,18.10
2023-09-28T06:52:13.448Z,18.10
2023-09-28T06:53:36.352Z,18.10
2023-09-28T06:54:58.475Z,18.20
2023-09-28T06:56:22.029Z,18.20
2023-09-28T06:57:44.240Z,18.20
2023-09-28T06:59:06.342Z,18.30
2023-09-28T07:00:30.587Z,18.30
2023-09-28T07:01:52.766Z,18.30
2023-09-28T07:03:15.319Z,18.30
2023-09-28T07:04:37.486Z,18.40
2023-09-28T07:05:59.591Z,18.40
2023-09-28T07:07:22.187Z,18.40
2023-09-28T07:08:44.718Z,18.50
2023-09-28T07:10:07.363Z,18.50
2023-09-28T07:11:30.127Z,18.50
2023-09-28T07:12:52.330Z,18.60
2023-09-28T07:14:14.470Z,18.60
2023-09-28T07:15:41.553Z,18.60
2023-09-28T07:17:04.673Z,18.70
2023-09-28T07:18:27.404Z,18.70
2023-09-28T07:19:50.157Z,18.70
2023-09-28T07:21:12.357Z,18.80
2023-09-28T07:22:36.338Z,18.80
2023-09-28T07:24:08.470Z,18.90
2023-09-28T07:25:38.609Z,18.90
2023-09-28T07:27:01.393Z,19.00
2023-09-28T07:28:23.490Z,19.10
2023-09-28T07:29:45.671Z,19.20
2023-09-28T07:31:07.945Z,19.20
2023-09-28T07:32:31.256Z,19.30
2023-09-28T07:33:53.858Z,19.40
2023-09-28T07:35:17.243Z,19.40
2023-09-28T07:36:40.788Z,19.50
2023-09-28T07:38:03.338Z,19.60
2023-09-28T07:39:25.961Z,19.70
2023-09-28T07:40:48.592Z,19.80
2023-09-28T07:42:10.753Z,19.80
2023-09-28T07:43:32.899Z,19.80
2023-09-28T07:44:55.291Z,19.90
2023-09-28T07:46:17.567Z,19.90
2023-09-28T07:47:41.895Z,20.00
2023-09-28T07:49:04.433Z,20.00
2023-09-28T07:50:26.571Z,20.00
2023-09-28T07:51:48.784Z,20.10
2023-09-28T07:53:10.937Z,20.10
2023-09-28T07:54:33.008Z,20.10
2023-09-28T07:55:55.277Z,20.20
2023-09-28T07:57:18.269Z,20.20
2023-09-28T07:58:40.429Z,20.30
2023-09-28T08:00:02.738Z,20.30
2023-09-28T08:01:27.712Z,20.40
2023-09-28T08:02:50.005Z,20.50
2023-09-28T08:04:12.232Z,20.50
2023-09-28T08:05:34.373Z,20.60
2023-09-28T08:06:56.529Z,20.70
2023-09-28T08:08:20.173Z,20.90
2023-09-28T08:09:43.671Z,21.00
2023-09-28T08:11:07.501Z,21.10
2023-09-28T08:12:29.738Z,21.10
2023-09-28T08:13:52.202Z,21.20
2023-09-28T08:15:27.309Z,21.20
2023-09-28T08:16:58.149Z,21.10
2023-09-28T08:18:22.173Z,21.20
2023-09-28T08:19:46.711Z,21.20
2023-09-28T08:21:10.794Z,21.30
2023-09-28T08:22:37.172Z,21.40
2023-09-28T08:23:59.865Z,21.40
2023-09-28T08:25:22.056Z,21.50
2023-09-28T08:26:44.292Z,21.60
2023-09-28T08:28:07.294Z,21.60
2023-09-28T08:29:29.462Z,21.60
2023-09-28T08:30:57.700Z,21.60
2023-09-28T08:32:20.339Z,21.50
2023-09-28T08:33:42.526Z,21.60
2023-09-28T08:35:08.054Z,21.60
2023-09-28T08:36:31.285Z,21.50
2023-09-28T08:37:53.672Z,21.60
2023-09-28T08:39:17.732Z,21.60
2023-09-28T08:40:41.418Z,21.60
2023-09-28T08:42:05.539Z,21.60
2023-09-28T08:43:31.556Z,21.70
2023-09-28T08:45:00.913Z,21.70
2023-09-28T08:46:44.624Z,21.80
2023-09-28T08:48:12.798Z,21.80
2023-09-28T08:49:36.658Z,21.80
2023-09-28T08:51:10.464Z,21.80
2023-09-28T08:52:34.985Z,21.80
2023-09-28T08:54:04.243Z,21.80
2023-09-28T08:55:29.302Z,21.90
2023-09-28T08:56:58.248Z,21.90
2023-09-28T08:58:21.424Z,21.90
2023-09-28T08:59:44.281Z,21.90
2023-09-28T09:01:08.093Z,21.90
2023-09-28T09:02:30.959Z,21.90
2023-09-28T09:03:53.223Z,21.90
2023-09-28T09:05:15.717Z,22.00
2023-09-28T09:06:38.142Z,22.10
2023-09-28T09:08:01.030Z,22.20
2023-09-28T09:09:25.781Z,22.30
2023-09-28T09:10:48.482Z,22.50
2023-09-28T09:12:13.799Z,22.50
2023-09-28T09:13:35.902Z,22.60
2023-09-28T09:14:58.539Z,22.60
2023-09-28T09:16:24.666Z,22.60
2023-09-28T09:17:46.911Z,22.60
2023-09-28T09:19:13.238Z,22.70
2023-09-28T09:20:35.959Z,22.80
2023-09-28T09:21:58.727Z,22.90
2023-09-28T09:23:20.977Z,23.00
2023-09-28T09:24:55.316Z,23.10
2023-09-28T09:26:20.922Z,23.20
2023-09-28T09:27:44.419Z,23.20
2023-09-28T09:29:06.995Z,23.30
2023-09-28T09:30:36.142Z,23.30
2023-09-28T09:31:58.979Z,23.40
2023-09-28T09:33:22.662Z,23.40
2023-09-28T09:34:46.038Z,23.40
2023-09-28T09:36:08.627Z,23.30
2023-09-28T09:37:31.034Z,23.30
2023-09-28T09:38:54.465Z,23.40
2023-09-28T09:40:17.166Z,23.40
2023-09-28T09:41:46.084Z,23.40
2023-09-28T09:43:09.714Z,23.50
2023-09-28T09:44:32.068Z,23.50
2023-09-28T09:45:54.544Z,23.60
2023-09-28T09:47:17.573Z,23.70
2023-09-28T09:48:44.180Z,23.80
2023-09-28T09:50:08.664Z,23.90
2023-09-28T09:51:31.945Z,24.00
2023-09-28T09:52:55.758Z,24.00
2023-09-28T09:54:20.078Z,24.10
2023-09-28T09:55:47.561Z,24.10
2023-09-28T09:57:16.510Z,24.10
2023-09-28T09:58:41.654Z,24.10
2023-09-28T10:00:08.234Z,24.00
2023-09-28T10:01:31.063Z,24.00
2023-09-28T10:02:55.323Z,23.80
2023-09-28T10:04:23.306Z,23.80
2023-09-28T10:05:45.649Z,23.80
2023-09-28T10:07:13.723Z,23.70
2023-09-28T10:08:36.182Z,23.80
2023-09-28T10:09:58.650Z,23.90
2023-09-28T10:11:21.570Z,24.00
2023-09-28T10:12:43.853Z,24.10
2023-09-28T10:14:06.495Z,24.20
2023-09-28T10:15:28.963Z,24.40
2023-09-28T10:16:54.179Z,24.60
2023-09-28T10:18:16.636Z,24.60
2023-09-28T10:19:40.001Z,24.70
2023-09-28T10:21:02.455Z,24.90
2023-09-28T10:22:24.706Z,25.00
2023-09-28T16:27:52.149Z,22.60
2023-09-28T16:29:14.380Z,22.50
2023-09-28T16:30:36.738Z,22.40
2023-09-28T16:31:59.662Z,22.40
2023-09-28T16:33:21.843Z,22.30
2023-09-28T16:34:44.106Z,22.20
2023-09-28T16:36:06.307Z,22.20
2023-09-28T16:37:28.445Z,22.10
2023-09-28T16:38:50.665Z,22.10
2023-09-28T16:40:13.904Z,22.00
2023-09-28T16:41:36.094Z,22.00
2023-09-28T16:42:58.334Z,21.90
2023-09-28T16:44:20.472Z,21.90
2023-09-28T16:45:42.628Z,21.80
2023-09-28T16:47:04.904Z,21.80
2023-09-28T16:48:27.105Z,21.70
2023-09-28T16:49:49.459Z,21.60
2023-09-28T16:51:14.973Z,21.60
2023-09-28T16:52:37.603Z,21.50
2023-09-28T16:53:59.719Z,21.50
2023-09-28T16:55:22.132Z,21.40
2023-09-28T16:56:44.376Z,21.40
2023-09-28T16:58:07.344Z,21.40
2023-09-28T16:59:29.487Z,21.30
2023-09-28T17:00:51.831Z,21.30
2023-09-28T17:02:14.130Z,21.20
2023-09-28T17:03:36.590Z,21.20
2023-09-28T17:04:58.971Z,21.20
2023-09-28T17:06:21.533Z,21.10
2023-09-28T17:07:43.875Z,21.10
2023-09-28T17:09:06.054Z,21.00
2023-09-28T17:10:28.175Z,21.00
2023-09-28T17:11:50.337Z,21.00
2023-09-28T17:13:13.149Z,20.90
2023-09-28T17:14:39.407Z,20.90
2023-09-28T17:16:01.596Z,20.80
2023-09-28T17:17:23.840Z,20.80
2023-09-28T17:18:45.985Z,20.80
2023-09-28T17:20:08.765Z,20.70
2023-09-28T17:21:30.974Z,20.70
2023-09-28T17:22:53.406Z,20.70
2023-09-28T17:24:15.946Z,20.70
2023-09-28T17:25:38.144Z,20.60
2023-09-28T17:27:00.272Z,20.60
2023-09-28T17:28:22.471Z,20.50
2023-09-28T17:29:46.643Z,20.50
2023-09-28T17:31:09.104Z,20.50
2023-09-28T17:32:31.363Z,20.50
2023-09-28T17:33:53.973Z,20.40
2023-09-28T17:35:16.151Z,20.40
2023-09-28T17:36:38.382Z,20.40
2023-09-28T17:38:00.463Z,20.30
2023-09-28T17:39:23.931Z,20.30
2023-09-28T17:40:46.111Z,20.30
2023-09-28T17:42:08.235Z,20.20
2023-09-28T17:43:30.495Z,20.20
2023-09-28T17:44:52.583Z,20.20
2023-09-28T17:46:14.686Z,20.20
2023-09-28T17:47:37.256Z,20.20
2023-09-28T17:48:59.537Z,20.10
2023-09-28T17:50:21.797Z,20.10
2023-09-28T17:51:44.819Z,20.10
2023-09-28T17:53:07.015Z,20.10
2023-09-28T17:54:29.261Z,20.10
2023-09-28T17:55:51.493Z,20.00
2023-09-28T17:57:13.624Z,20.00
2023-09-28T17:58:35.941Z,20.00
2023-09-28T17:59:58.021Z,19.90
2023-09-28T18:01:20.190Z,19.90
2023-09-28T18:02:42.541Z,19.90
2023-09-28T18:04:05.132Z,19.90
2023-09-28T18:05:27.500Z,19.90
2023-09-28T18:06:49.737Z,19.90
2023-09-28T18:08:12.115Z,19.90
2023-09-28T18:09:34.527Z,19.90
2023-09-28T18:10:56.555Z,19.90
2023-09-28T18:12:18.802Z,19.90
2023-09-28T18:13:40.960Z,19.90
2023-09-28T18:15:04.483Z,19.90
2023-09-28T18:16:26.764Z,19.90
2023-09-28T18:17:49.127Z,19.80
2023-09-28T18:19:15.000Z,19.80
2023-09-28T18:20:37.062Z,19.70
2023-09-28T18:21:59.312Z,19.70
2023-09-28T18:23:21.501Z,19.70
2023-09-28T18:24:44.374Z,19.60
2023-09-28T18:26:06.496Z,19.60
2023-09-28T18:27:28.615Z,19.60
2023-09-28T18:28:51.240Z,19.60
2023-09-28T18:30:13.824Z,19.50
2023-09-28T18:31:36.241Z,19.50
2023-09-28T18:32:59.145Z,19.50
2023-09-28T18:34:21.418Z,19.40
2023-09-28T18:35:43.699Z,19.50
2023-09-28T18:37:05.847Z,19.40
2023-09-28T18:38:27.978Z,19.40
2023-09-28T18:39:50.916Z,19.40
2023-09-28T18:41:19.400Z,19.30
2023-09-28T18:42:41.812Z,19.30
2023-09-28T18:44:04.081Z,19.30
2023-09-28T18:45:26.411Z,19.30
2023-09-28T18:46:48.563Z,19.30
2023-09-28T18:48:12.932Z,19.30
2023-09-28T18:49:36.322Z,19.30
2023-09-28T18:50:58.477Z,19.20
2023-09-28T18:52:20.587Z,19.20
2023-09-28T18:53:42.870Z,19.20
2023-09-28T18:55:06.197Z,19.20
2023-09-28T18:56:28.592Z,19.20
2023-09-28T18:57:50.773Z,19.10
2023-09-28T18:59:14.497Z,19.10
2023-09-28T19:00:37.240Z,19.10
2023-09-28T19:01:59.438Z,19.10
2023-09-28T19:03:21.557Z,19.00
2023-09-28T19:04:44.280Z,19.00
2023-09-28T19:06:22.466Z,19.00
2023-09-28T19:07:46.308Z,19.00
2023-09-28T19:09:12.864Z,19.00
2023-09-28T19:10:35.018Z,18.90
2023-09-28T19:11:59.314Z,19.00
2023-09-28T19:13:23.813Z,18.90
2023-09-28T19:14:45.942Z,18.90
2023-09-28T19:16:08.871Z,18.90
2023-09-28T19:17:31.301Z,18.90
2023-09-28T19:18:53.813Z,18.90
2023-09-28T19:20:25.786Z,18.90
2023-09-28T19:21:48.753Z,18.90
2023-09-28T19:23:11.413Z,18.90
2023-09-28T19:24:35.947Z,18.90
2023-09-28T19:25:59.047Z,18.90
2023-09-28T19:27:35.741Z,18.80
2023-09-28T19:29:04.590Z,18.80
2023-09-28T19:30:26.775Z,18.80
2023-09-28T19:31:54.519Z,18.80
2023-09-28T19:33:19.583Z,18.80
2023-09-28T19:34:42.279Z,18.80
2023-09-28T19:36:10.881Z,18.80
2023-09-28T19:37:33.132Z,18.70
2023-09-28T19:38:55.348Z,18.80
2023-09-28T19:40:18.484Z,18.80
2023-09-28T19:41:40.705Z,18.80
2023-09-28T19:43:06.323Z,18.80
2023-09-28T19:44:30.114Z,18.70
2023-09-28T19:45:52.260Z,18.70
2023-09-28T19:47:15.167Z,18.70
2023-09-28T19:48:37.443Z,18.70
2023-09-28T19:50:01.022Z,18.70
2023-09-28T19:51:24.185Z,18.70
2023-09-28T19:52:46.548Z,18.60
2023-09-28T19:54:08.731Z,18.60
2023-09-28T19:55:31.018Z,18.60
2023-09-28T19:56:53.182Z,18.60
2023-09-28T19:58:15.471Z,18.60
2023-09-28T19:59:40.226Z,18.50
2023-09-28T20:01:02.374Z,18.50
2023-09-28T20:02:24.961Z,18.50
2023-09-28T20:03:47.724Z,18.50
2023-09-28T20:05:12.001Z,18.50
2023-09-28T20:06:34.461Z,18.50
2023-09-28T20:07:56.521Z,18.50
2023-09-28T20:09:18.985Z,18.40
2023-09-28T20:10:41.484Z,18.40
2023-09-28T20:12:03.855Z,18.40
2023-09-28T20:13:26.119Z,18.40
2023-09-28T20:14:49.354Z,18.30
2023-09-28T20:16:11.797Z,18.30
2023-09-28T20:17:34.191Z,18.30
2023-09-28T20:18:56.487Z,18.30
2023-09-28T20:20:19.191Z,18.20
2023-09-28T20:21:41.308Z,18.20
2023-09-28T20:23:03.444Z,18.20
2023-09-28T20:24:25.717Z,18.20
2023-09-28T20:25:47.812Z,18.20
2023-09-28T20:27:10.354Z,18.10
2023-09-28T20:28:32.514Z,18.10
2023-09-28T20:29:54.680Z,18.10
2023-09-28T20:31:17.298Z,18.10
2023-09-28T20:32:40.200Z,18.10
2023-09-28T20:34:03.719Z,18.00
2023-09-28T20:35:25.884Z,18.00
2023-09-28T20:36:48.019Z,18.00
2023-09-28T20:38:10.421Z,18.00
2023-09-28T20:39:32.479Z,17.90
2023-09-28T20:40:54.674Z,17.90
2023-09-28T20:42:16.820Z,17.90
2023-09-28T20:43:39.134Z,17.80
2023-09-28T20:45:01.227Z,17.80
2023-09-28T20:46:23.411Z,17.70
2023-09-28T20:47:45.696Z,17.70
2023-09-28T20:49:07.936Z,17.70
2023-09-28T20:50:30.019Z,17.70
2023-09-28T20:51:52.102Z,17.70
2023-09-28T20:53:15.300Z,17.60
2023-09-28T20:54:37.525Z,17.60
2023-09-28T20:55:59.696Z,17.60
2023-09-28T20:57:21.817Z,17.60
2023-09-28T20:58:43.957Z,17.60
2023-09-28T21:00:07.860Z,17.60
2023-09-28T21:01:30.098Z,17.60
2023-09-28T21:02:52.825Z,17.60
2023-09-28T21:04:15.885Z,17.60
2023-09-28T21:05:38.419Z,17.60
2023-09-28T21:07:00.607Z,17.60
2023-09-28T21:08:23.007Z,17.60
2023-09-28T21:09:45.155Z,17.60
2023-09-28T21:11:07.438Z,17.60
2023-09-28T21:12:29.851Z,17.60
2023-09-28T21:13:51.951Z,17.60
2023-09-28T21:15:14.139Z,17.60
2023-09-28T21:16:36.280Z,17.60
2023-09-28T21:17:58.495Z,17.60
2023-09-28T21:19:20.771Z,17.60
2023-09-28T21:20:43.006Z,17.60
2023-09-28T21:22:05.142Z,17.60
2023-09-28T21:23:27.498Z,17.60
2023-09-28T21:24:49.679Z,17.60
2023-09-28T21:26:13.190Z,17.60
2023-09-28T21:27:35.432Z,17.60
2023-09-28T21:28:57.601Z,17.50
2023-09-28T21:30:20.108Z,17.50
2023-09-28T21:31:42.306Z,17.50
2023-09-28T21:33:04.929Z,17.50
2023-09-28T21:34:27.085Z,17.50
2023-09-28T21:35:49.183Z,17.50
2023-09-28T21:37:11.646Z,17.50
2023-09-28T21:38:33.768Z,17.50
2023-09-28T21:39:55.859Z,17.50
2023-09-28T21:41:18.095Z,17.50
2023-09-28T21:42:40.941Z,17.40
2023-09-28T21:44:03.154Z,17.40
2023-09-28T21:45:25.335Z,17.40
2023-09-28T21:46:47.400Z,17.40
2023-09-28T21:48:09.724Z,17.40
2023-09-28T21:49:31.985Z,17.40
2023-09-28T21:50:54.050Z,17.40
2023-09-28T21:52:16.120Z,17.40
2023-09-28T21:53:38.305Z,17.40
2023-09-28T21:55:00.556Z,17.40
2023-09-28T21:56:22.909Z,17.40
2023-09-28T21:57:45.045Z,17.40
2023-09-28T21:59:07.143Z,17.40
2023-09-28T22:00:38.133Z,17.40
2023-09-28T22:02:00.211Z,17.40
2023-09-28T22:03:22.473Z,17.40
2023-09-28T22:04:44.655Z,17.40
2023-09-28T22:06:07.141Z,17.40
2023-09-28T22:07:29.214Z,17.40
2023-09-28T22:08:51.356Z,17.40
2023-09-28T22:10:13.521Z,17.30
2023-09-28T22:11:35.791Z,17.40
2023-09-28T22:12:59.089Z,17.30
2023-09-28T22:14:21.364Z,17.30
2023-09-28T22:15:46.431Z,17.30
2023-09-28T22:17:08.633Z,17.30
2023-09-28T22:18:31.361Z,17.30
2023-09-28T22:19:53.524Z,17.30
2023-09-28T22:21:18.312Z,17.30
2023-09-28T22:22:41.230Z,17.30
2023-09-28T22:24:04.184Z,17.30
2023-09-28T22:25:26.449Z,17.30
2023-09-28T22:26:48.632Z,17.30
2023-09-28T22:28:10.963Z,17.30
2023-09-28T22:29:33.859Z,17.20
2023-09-28T22:30:56.884Z,17.20
2023-09-28T22:32:19.291Z,17.20
2023-09-28T22:33:41.434Z,17.10
2023-09-28T22:35:03.799Z,17.10
2023-09-28T22:36:26.182Z,17.10
2023-09-28T22:37:48.309Z,17.00
2023-09-28T22:39:11.571Z,17.00
2023-09-28T22:40:33.734Z,17.00
2023-09-28T22:41:55.947Z,17.00
2023-09-28T22:43:18.649Z,17.00
2023-09-28T22:44:40.804Z,16.90
2023-09-28T22:46:02.909Z,16.90
2023-09-28T22:47:25.082Z,16.90
2023-09-28T22:48:47.336Z,16.90
2023-09-28T22:50:11.965Z,16.90
2023-09-28T22:51:34.054Z,16.90
2023-09-28T22:52:56.331Z,16.90
2023-09-28T22:54:18.442Z,16.90
2023-09-28T22:55:40.622Z,16.90
2023-09-28T22:57:02.807Z,16.90
2023-09-28T22:58:24.911Z,16.90
2023-09-28T22:59:47.369Z,16.80
2023-09-28T23:01:09.573Z,16.80
2023-09-28T23:02:31.861Z,16.80
2023-09-28T23:03:54.264Z,16.80
2023-09-28T23:05:17.725Z,16.80
2023-09-28T23:06:39.991Z,16.80
2023-09-28T23:08:02.526Z,16.80
2023-09-28T23:09:24.725Z,16.80
2023-09-28T23:10:46.797Z,16.80
2023-09-28T23:12:08.869Z,16.80
2023-09-28T23:13:35.553Z,16.70
2023-09-28T23:14:58.419Z,16.70
2023-09-28T23:16:20.697Z,16.70
2023-09-28T23:17:43.479Z,16.70
2023-09-28T23:19:07.732Z,16.70
2023-09-28T23:20:29.834Z,16.70
2023-09-28T23:21:55.176Z,16.70
2023-09-28T23:23:17.295Z,16.70
2023-09-28T23:24:42.195Z,16.60
2023-09-28T23:26:06.984Z,16.60
2023-09-28T23:27:29.188Z,16.60
2023-09-28T23:28:51.356Z,16.60
2023-09-28T23:30:18.553Z,16.60
2023-09-28T23:31:41.564Z,16.60
2023-09-28T23:33:06.594Z,16.60
2023-09-28T23:34:28.862Z,16.60
2023-09-28T23:35:51.221Z,16.60
2023-09-28T23:37:14.397Z,16.60
2023-09-28T23:38:36.613Z,16.60
2023-09-28T23:40:00.632Z,16.60
2023-09-28T23:41:23.491Z,16.60
2023-09-28T23:42:45.637Z,16.60
2023-09-28T23:44:07.792Z,16.60
2023-09-28T23:45:30.055Z,16.60
2023-09-28T23:46:53.034Z,16.60
2023-09-28T23:48:16.776Z,16.50
2023-09-28T23:49:38.970Z,16.50
2023-09-28T23:51:06.737Z,16.50
2023-09-28T23:52:28.956Z,16.50
2023-09-28T23:53:51.040Z,16.50
2023-09-28T23:55:15.792Z,16.50
2023-09-28T23:56:40.091Z,16.50
2023-09-28T23:58:02.807Z,16.50